Time;durP1;ratioP1;P1;durP2;ratioP2;P2;SDS_P1;SDS_P2;PMS_P1;PMS_P2;Temp;Humidity;BMP_temperature;BMP_pressure;BME280_temperature;BME280_humidity;BME280_pressure;Samples;Min_cycle;Max_cycle;Signal;HPM_P1;HPM_P2
2020/12/25 00:01:14;;;;;;;1.40;1.30;;;;;;;3.96;100.00;100251.58;627837;225;28102;-71
2020/12/25 00:03:43;;;;;;;2.00;1.80;;;;;;;4.00;100.00;100249.16;650919;221;24802;-71
2020/12/25 00:06:11;;;;;;;1.40;1.30;;;;;;;3.96;100.00;100250.75;633242;225;24878;-71
2020/12/25 00:08:39;;;;;;;1.40;1.30;;;;;;;3.89;100.00;100249.03;647855;221;24891;-71
2020/12/25 00:11:07;;;;;;;1.23;1.13;;;;;;;3.83;100.00;100254.59;642197;222;24804;-71
2020/12/25 00:13:35;;;;;;;1.10;0.90;;;;;;;3.85;100.00;100259.17;643015;221;24871;-71
2020/12/25 00:16:03;;;;;;;1.27;1.07;;;;;;;3.88;100.00;100256.39;642226;218;24829;-71
2020/12/25 00:18:31;;;;;;;1.00;0.90;;;;;;;3.85;100.00;100266.89;642792;222;25845;-71
2020/12/25 00:20:58;;;;;;;1.23;1.13;;;;;;;3.84;100.00;100274.25;640664;222;24915;-71
2020/12/25 00:23:27;;;;;;;0.93;0.93;;;;;;;3.86;100.00;100265.50;640514;221;24790;-71
2020/12/25 00:25:54;;;;;;;1.00;1.00;;;;;;;3.85;100.00;100272.03;641009;221;24814;-71
2020/12/25 00:28:23;;;;;;;1.52;0.90;;;;;;;3.85;100.00;100266.43;628026;225;32951;-71
2020/12/25 00:30:50;;;;;;;0.80;0.80;;;;;;;3.87;100.00;100265.04;646768;221;23666;-71
2020/12/25 00:33:18;;;;;;;0.87;0.87;;;;;;;3.91;100.00;100260.05;628702;226;24814;-71
2020/12/25 00:35:46;;;;;;;1.00;0.90;;;;;;;3.85;100.00;100262.57;644163;218;24821;-71
2020/12/25 00:38:14;;;;;;;1.00;0.90;;;;;;;3.92;100.00;100253.97;625781;225;33247;-71
2020/12/25 00:40:43;;;;;;;1.60;0.93;;;;;;;3.98;100.00;100254.87;641232;219;43294;-71
2020/12/25 00:43:11;;;;;;;0.90;0.90;;;;;;;3.84;100.00;100252.39;637257;224;23702;-71
2020/12/25 00:45:39;;;;;;;0.90;0.90;;;;;;;3.83;100.00;100253.31;650333;220;26924;-71
2020/12/25 00:48:08;;;;;;;1.10;0.80;;;;;;;3.86;100.00;100254.39;635899;222;25856;-71
2020/12/25 00:50:35;;;;;;;1.20;0.97;;;;;;;3.73;100.00;100259.98;640066;221;24833;-71
2020/12/25 00:53:03;;;;;;;0.90;0.90;;;;;;;3.75;100.00;100258.13;626169;226;24849;-71
2020/12/25 00:55:31;;;;;;;1.33;0.97;;;;;;;3.75;100.00;100260.23;627615;225;24846;-71
2020/12/25 00:57:59;;;;;;;1.00;1.00;;;;;;;3.78;100.00;100265.17;631592;225;24819;-71
2020/12/25 01:00:27;;;;;;;1.60;1.13;;;;;;;3.81;100.00;100266.74;646311;221;24834;-71
2020/12/25 01:02:55;;;;;;;1.10;0.80;;;;;;;3.88;100.00;100267.97;638859;221;32832;-70
2020/12/25 01:05:22;;;;;;;0.70;0.70;;;;;;;3.87;100.00;100263.75;638291;221;24002;-71
2020/12/25 01:07:50;;;;;;;0.70;0.70;;;;;;;4.01;100.00;100273.13;642745;221;32650;-71
2020/12/25 01:10:18;;;;;;;1.07;0.93;;;;;;;3.98;100.00;100274.16;642470;222;23694;-71
2020/12/25 01:12:46;;;;;;;0.60;0.60;;;;;;;4.02;100.00;100281.21;626247;225;24856;-71
2020/12/25 01:15:14;;;;;;;0.80;0.80;;;;;;;4.02;100.00;100279.45;630819;225;26060;-71
2020/12/25 01:17:42;;;;;;;0.70;0.60;;;;;;;4.15;100.00;100282.86;644169;221;32743;-71
2020/12/25 01:20:10;;;;;;;0.80;0.80;;;;;;;4.14;100.00;100285.08;636620;224;23709;-71
2020/12/25 01:22:38;;;;;;;0.70;0.70;;;;;;;4.13;100.00;100295.48;642127;223;24784;-71
2020/12/25 01:25:06;;;;;;;0.70;0.70;;;;;;;4.04;100.00;100295.62;648433;218;24774;-71
2020/12/25 01:27:33;;;;;;;0.80;0.80;;;;;;;4.00;100.00;100304.94;634542;225;24816;-71
2020/12/25 01:30:01;;;;;;;0.83;0.83;;;;;;;4.09;100.00;100310.31;646156;221;24767;-71
2020/12/25 01:32:34;;;;;;;1.03;0.93;;;;;;;4.17;100.00;100313.64;628066;226;26044;-71
2020/12/25 01:34:58;;;;;;;1.10;1.00;;;;;;;4.46;100.00;100315.09;637762;221;32636;-71
2020/12/25 01:37:26;;;;;;;1.20;1.10;;;;;;;4.35;100.00;100318.02;639145;221;23710;-71
2020/12/25 01:39:54;;;;;;;2.10;1.20;;;;;;;4.38;100.00;100322.53;625905;225;24883;-71
2020/12/25 01:42:22;;;;;;;1.43;0.83;;;;;;;4.29;100.00;100326.17;641396;221;24816;-71
2020/12/25 01:44:50;;;;;;;0.97;0.97;;;;;;;4.40;100.00;100326.28;649211;221;26920;-71
2020/12/25 01:47:18;;;;;;;0.90;0.90;;;;;;;4.31;100.00;100337.19;643412;221;24892;-71
2020/12/25 01:49:46;;;;;;;1.13;1.10;;;;;;;4.34;100.00;100338.26;644986;221;24788;-71
2020/12/25 01:52:14;;;;;;;1.40;1.30;;;;;;;4.52;100.00;100328.03;640130;219;33279;-71
2020/12/25 01:54:42;;;;;;;1.10;1.03;;;;;;;4.30;100.00;100331.67;637839;225;23693;-70
2020/12/25 01:57:10;;;;;;;1.43;1.33;;;;;;;4.38;100.00;100340.55;638354;225;24842;-70
2020/12/25 01:59:38;;;;;;;1.50;1.40;;;;;;;4.36;100.00;100339.83;633462;225;24824;-71
2020/12/25 02:02:05;;;;;;;2.20;1.60;;;;;;;4.36;100.00;100342.41;633808;225;24856;-71
2020/12/25 02:04:33;;;;;;;1.70;1.60;;;;;;;4.61;100.00;100350.57;627239;225;32818;-71
2020/12/25 02:07:01;;;;;;;1.50;1.40;;;;;;;4.49;100.00;100351.39;635059;225;28063;-70
2020/12/25 02:09:29;;;;;;;2.20;1.73;;;;;;;4.43;100.00;100350.06;642832;220;24828;-71
2020/12/25 02:11:57;;;;;;;2.60;1.87;;;;;;;4.54;100.00;100351.93;639480;223;26019;-71
2020/12/25 02:14:25;;;;;;;5.40;2.10;;;;;;;4.44;100.00;100361.19;631447;225;25078;-71
2020/12/25 02:16:53;;;;;;;1.70;1.40;;;;;;;4.58;100.00;100363.66;640042;221;43547;-71
2020/12/25 02:19:21;;;;;;;2.00;1.70;;;;;;;4.47;100.00;100366.13;631786;225;24831;-71
2020/12/25 02:21:49;;;;;;;2.77;1.80;;;;;;;4.51;100.00;100366.77;633484;225;28049;-71
2020/12/25 02:24:16;;;;;;;2.27;1.70;;;;;;;4.40;100.00;100361.04;635814;225;24805;-70
2020/12/25 02:26:44;;;;;;;1.67;1.40;;;;;;;4.38;100.00;100363.72;626465;225;27020;-70
2020/12/25 02:29:12;;;;;;;2.40;1.83;;;;;;;4.27;100.00;100361.48;636653;225;24882;-71
2020/12/25 02:31:40;;;;;;;2.97;2.50;;;;;;;4.26;100.00;100365.81;634338;225;24891;-70
2020/12/25 02:34:08;;;;;;;2.10;1.90;;;;;;;4.54;100.00;100366.56;638572;221;32897;-69
2020/12/25 02:36:36;;;;;;;3.65;2.20;;;;;;;4.64;100.00;100368.39;638304;221;32684;-71
2020/12/25 02:39:04;;;;;;;2.50;2.30;;;;;;;4.47;100.00;100366.13;648243;221;25105;-71
2020/12/25 02:41:32;;;;;;;2.07;1.93;;;;;;;4.56;100.00;100373.71;645390;221;24840;-71
2020/12/25 02:44:00;;;;;;;2.70;2.13;;;;;;;4.53;100.00;100377.33;643754;221;24840;-71
2020/12/25 02:46:28;;;;;;;2.97;2.03;;;;;;;4.46;100.00;100380.75;630296;225;24980;-70
2020/12/25 02:48:56;;;;;;;6.30;2.47;;;;;;;4.46;100.00;100376.89;633983;225;24882;-71
2020/12/25 02:51:24;;;;;;;5.50;2.90;;;;;;;4.55;100.00;100383.19;643677;221;24854;-71
2020/12/25 02:53:51;;;;;;;5.73;2.40;;;;;;;4.52;100.00;100380.83;630189;225;29110;-71
2020/12/25 02:56:19;;;;;;;3.90;2.30;;;;;;;4.46;100.00;100382.50;644275;221;24812;-71
2020/12/25 02:58:47;;;;;;;4.40;2.50;;;;;;;4.55;100.00;100387.52;645645;221;28008;-70
2020/12/25 03:01:15;;;;;;;3.43;2.93;;;;;;;4.59;100.00;100395.39;640908;221;24813;-70
2020/12/25 03:03:43;;;;;;;3.60;2.83;;;;;;;4.48;100.00;100389.20;646539;220;25150;-71
2020/12/25 03:06:11;;;;;;;3.27;2.73;;;;;;;4.46;100.00;100394.09;635923;225;24854;-70
2020/12/25 03:08:39;;;;;;;3.13;2.73;;;;;;;4.57;100.00;100391.64;642133;220;25206;-71
2020/12/25 03:11:07;;;;;;;4.70;3.40;;;;;;;4.81;100.00;100399.48;639630;221;32977;-71
2020/12/25 03:13:36;;;;;;;4.60;3.30;;;;;;;4.95;100.00;100388.23;626355;225;32862;-71
2020/12/25 03:16:03;;;;;;;5.50;3.60;;;;;;;4.94;100.00;100391.28;630785;222;32851;-70
2020/12/25 03:18:31;;;;;;;5.73;2.90;;;;;;;4.68;100.00;100396.91;641827;221;25851;-71
2020/12/25 03:20:59;;;;;;;4.40;3.50;;;;;;;4.66;100.00;100398.76;643508;221;25114;-71
2020/12/25 03:23:27;;;;;;;4.00;3.40;;;;;;;4.52;100.00;100399.32;631122;226;28039;-71
2020/12/25 03:25:55;;;;;;;8.50;4.30;;;;;;;4.43;100.00;100400.73;646346;218;24793;-70
2020/12/25 03:28:23;;;;;;;4.10;3.50;;;;;;;4.28;100.00;100404.33;644112;222;26963;-71
2020/12/25 03:30:50;;;;;;;4.80;3.40;;;;;;;4.25;100.00;100408.39;639177;221;24862;-70
2020/12/25 03:33:18;;;;;;;5.73;3.57;;;;;;;4.29;100.00;100408.55;633028;225;29035;-70
2020/12/25 03:35:47;;;;;;;4.47;3.40;;;;;;;4.46;100.00;100412.12;647350;219;24869;-71
2020/12/25 03:38:14;;;;;;;6.63;3.77;;;;;;;4.21;100.00;100415.93;648330;221;24793;-72
2020/12/25 03:40:42;;;;;;;7.10;3.87;;;;;;;4.23;100.00;100414.93;628695;225;24897;-71
2020/12/25 03:43:10;;;;;;;5.80;3.70;;;;;;;4.29;100.00;100413.69;636071;225;24809;-71
2020/12/25 03:45:37;;;;;;;7.70;4.20;;;;;;;4.28;100.00;100418.48;642230;221;24824;-70
2020/12/25 03:48:05;;;;;;;4.47;3.60;;;;;;;4.53;100.00;100424.97;644108;221;24845;-71
2020/12/25 03:50:33;;;;;;;8.47;4.17;;;;;;;4.68;100.00;100416.22;646258;221;25128;-71
2020/12/25 03:53:01;;;;;;;5.62;4.20;;;;;;;4.82;100.00;100408.03;624985;225;33248;-71
2020/12/25 03:55:29;;;;;;;5.73;4.17;;;;;;;4.83;100.00;100418.23;650057;219;23659;-71
2020/12/25 03:57:57;;;;;;;9.43;4.87;;;;;;;4.80;100.00;100418.91;626286;225;24898;-71
2020/12/25 04:00:25;;;;;;;10.00;4.80;;;;;;;4.87;100.00;100419.66;635300;225;24849;-71
2020/12/25 04:02:52;;;;;;;8.30;3.90;;;;;;;4.88;100.00;100417.91;631123;225;24908;-71
2020/12/25 04:05:20;;;;;;;6.10;4.40;;;;;;;5.03;99.84;100414.29;634235;221;32775;-71
2020/12/25 04:07:48;;;;;;;8.70;4.40;;;;;;;4.98;100.00;100423.63;641865;221;25215;-71
2020/12/25 04:10:16;;;;;;;8.60;4.20;;;;;;;4.93;100.00;100421.84;635121;225;24932;-71
2020/12/25 04:12:44;;;;;;;4.70;3.90;;;;;;;4.91;100.00;100431.87;639176;221;24832;-71
2020/12/25 04:15:12;;;;;;;4.80;3.37;;;;;;;4.85;100.00;100431.01;635409;224;25118;-71
2020/12/25 04:17:40;;;;;;;6.25;3.92;;;;;;;5.21;99.54;100428.98;642512;220;32801;-71
2020/12/25 04:20:08;;;;;;;7.70;3.97;;;;;;;4.85;99.95;100433.12;631724;225;23730;-71
2020/12/25 04:22:35;;;;;;;5.30;3.90;;;;;;;4.89;100.00;100438.88;633718;225;24891;-70
2020/12/25 04:25:03;;;;;;;10.73;5.13;;;;;;;4.70;100.00;100444.45;640016;221;25201;-70
2020/12/25 04:27:31;;;;;;;6.28;4.00;;;;;;;4.96;100.00;100444.00;626252;225;32979;-70
2020/12/25 04:29:59;;;;;;;4.63;3.10;;;;;;;4.68;100.00;100447.13;642661;221;23673;-71
2020/12/25 04:32:27;;;;;;;8.23;3.70;;;;;;;4.31;100.00;100447.42;642968;221;24873;-71
2020/12/25 04:34:55;;;;;;;5.03;3.30;;;;;;;4.20;100.00;100446.45;635459;225;24835;-70
2020/12/25 04:37:23;;;;;;;5.13;3.03;;;;;;;4.14;100.00;100457.52;633556;225;24838;-71
2020/12/25 04:39:51;;;;;;;6.10;3.43;;;;;;;4.02;100.00;100458.76;633884;225;24842;-70
2020/12/25 04:42:19;;;;;;;4.27;3.47;;;;;;;4.02;100.00;100462.16;641120;221;27982;-71
2020/12/25 04:44:46;;;;;;;7.97;3.27;;;;;;;3.96;100.00;100465.13;641168;219;26947;-70
2020/12/25 04:47:14;;;;;;;4.17;3.70;;;;;;;3.87;100.00;100468.27;626487;225;25014;-70
2020/12/25 04:49:42;;;;;;;5.90;3.58;;;;;;;3.77;100.00;100480.05;642585;220;32722;-70
2020/12/25 04:52:10;;;;;;;4.97;3.57;;;;;;;3.83;100.00;100474.08;643293;220;23706;-70
2020/12/25 04:54:38;;;;;;;3.83;3.30;;;;;;;3.81;100.00;100484.09;638922;221;24873;-71
2020/12/25 04:57:06;;;;;;;4.07;3.57;;;;;;;3.83;100.00;100477.11;639049;224;25881;-71
2020/12/25 04:59:33;;;;;;;3.30;3.00;;;;;;;3.87;100.00;100484.53;641432;221;24869;-71
2020/12/25 05:02:01;;;;;;;4.03;3.63;;;;;;;3.89;100.00;100483.14;625695;225;24881;-70
2020/12/25 05:04:29;;;;;;;4.73;2.93;;;;;;;3.96;100.00;100484.42;641754;221;24800;-71
2020/12/25 05:06:57;;;;;;;5.03;3.47;;;;;;;3.91;100.00;100489.48;642507;221;24820;-71
2020/12/25 05:09:25;;;;;;;4.60;3.23;;;;;;;4.00;100.00;100490.20;646856;221;24849;-71
2020/12/25 05:11:53;;;;;;;7.27;3.60;;;;;;;3.94;100.00;100495.71;630019;225;24834;-70
2020/12/25 05:14:24;;;;;;;4.57;3.47;;;;;;;3.96;100.00;100496.47;642282;222;24805;-71
2020/12/25 05:16:53;;;;;;;3.53;3.23;;;;;;;3.91;100.00;100499.30;636617;225;24833;-70
2020/12/25 05:19:24;;;;;;;5.07;3.87;;;;;;;3.99;100.00;100498.84;627986;225;25950;-70
2020/12/25 05:21:52;;;;;;;6.67;3.40;;;;;;;4.04;100.00;100498.91;638044;221;25126;-70
2020/12/25 05:24:20;;;;;;;4.03;3.62;;;;;;;3.96;100.00;100502.44;642126;221;32647;-71
2020/12/25 05:26:52;;;;;;;4.87;3.50;;;;;;;3.94;100.00;100503.42;649147;219;23668;-71
2020/12/25 05:29:22;;;;;;;6.67;3.60;;;;;;;3.96;100.00;100508.87;643345;220;24777;-71
2020/12/25 05:31:50;;;;;;;3.20;2.90;;;;;;;3.92;100.00;100511.24;636720;225;24814;-71
2020/12/25 05:34:18;;;;;;;4.43;3.37;;;;;;;3.84;100.00;100508.34;643577;221;24904;-71
2020/12/25 05:36:51;;;;;;;3.40;3.10;;;;;;;3.92;100.00;100507.84;626884;225;24878;-70
2020/12/25 05:39:27;;;;;;;6.58;3.85;;;;;;;3.91;100.00;100514.74;639379;220;32667;-70
2020/12/25 05:41:57;;;;;;;6.67;3.57;;;;;;;3.88;100.00;100518.80;634478;225;23706;-70
2020/12/25 05:44:25;;;;;;;5.10;3.47;;;;;;;3.80;100.00;100523.58;642715;220;24823;-70
2020/12/25 05:46:53;;;;;;;4.97;3.53;;;;;;;3.83;100.00;100524.70;645963;221;24840;-70
2020/12/25 05:49:21;;;;;;;4.40;3.47;;;;;;;3.85;100.00;100527.53;644004;221;24986;-71
2020/12/25 05:51:49;;;;;;;5.30;3.53;;;;;;;3.85;100.00;100533.14;641539;221;28066;-71
2020/12/25 05:54:19;;;;;;;3.30;3.00;;;;;;;3.91;100.00;100529.35;648694;221;26960;-71
2020/12/25 05:56:49;;;;;;;6.37;3.60;;;;;;;3.93;100.00;100525.76;646851;221;24794;-71
2020/12/25 05:59:16;;;;;;;5.53;3.00;;;;;;;3.83;100.00;100524.23;635328;225;24887;-71
2020/12/25 06:01:45;;;;;;;4.43;3.70;;;;;;;3.86;100.00;100529.65;630258;225;24992;-70
2020/12/25 06:04:13;;;;;;;6.50;3.80;;;;;;;4.08;100.00;100534.27;642787;221;32586;-70
2020/12/25 06:06:41;;;;;;;4.80;3.87;;;;;;;4.02;100.00;100536.78;641889;221;23684;-70
2020/12/25 06:09:08;;;;;;;3.50;3.20;;;;;;;4.01;100.00;100536.88;643119;221;26998;-70
2020/12/25 06:11:36;;;;;;;4.30;3.73;;;;;;;3.99;100.00;100544.70;636308;225;24838;-71
2020/12/25 06:14:04;;;;;;;3.57;3.27;;;;;;;3.92;100.00;100545.98;631928;224;28061;-70
2020/12/25 06:16:32;;;;;;;7.83;4.00;;;;;;;3.88;100.00;100547.09;633623;225;24861;-71
2020/12/25 06:19:01;;;;;;;6.50;3.53;;;;;;;3.87;100.00;100548.84;640896;222;24846;-70
2020/12/25 06:21:31;;;;;;;4.70;3.70;;;;;;;4.04;100.00;100550.83;645194;221;24860;-71
2020/12/25 06:23:59;;;;;;;4.83;3.87;;;;;;;3.91;100.00;100557.66;639138;222;24819;-71
2020/12/25 06:26:27;;;;;;;5.33;3.80;;;;;;;3.89;100.00;100564.18;630293;225;28019;-71
2020/12/25 06:28:55;;;;;;;4.57;4.13;;;;;;;3.95;100.00;100570.72;645991;221;24791;-71
2020/12/25 06:31:33;;;;;;;5.53;3.70;;;;;;;3.97;100.00;100575.30;643454;221;24845;-71
2020/12/25 06:34:03;;;;;;;5.80;4.10;;;;;;;3.95;100.00;100580.55;645344;221;24792;-71
2020/12/25 06:36:31;;;;;;;4.37;3.60;;;;;;;4.06;100.00;100586.30;642325;222;24784;-71
2020/12/25 06:38:58;;;;;;;6.20;4.07;;;;;;;4.23;100.00;100586.58;642934;222;26061;-71
2020/12/25 06:41:27;;;;;;;4.60;3.83;;;;;;;4.17;100.00;100589.87;634327;225;28062;-71
2020/12/25 06:43:56;;;;;;;9.83;4.10;;;;;;;4.29;100.00;100593.44;638150;223;24873;-71
2020/12/25 06:46:29;;;;;;;4.00;3.43;;;;;;;4.21;100.00;100589.22;645283;221;24791;-71
2020/12/25 06:49:03;;;;;;;4.20;3.80;;;;;;;4.35;99.23;100590.92;638594;220;43563;-70
2020/12/25 06:51:31;;;;;;;3.93;3.40;;;;;;;4.30;99.46;100596.84;630744;225;23750;-71
2020/12/25 06:53:59;;;;;;;4.80;3.97;;;;;;;4.33;98.97;100598.75;643432;222;26992;-71
2020/12/25 06:56:27;;;;;;;4.30;3.57;;;;;;;4.40;98.86;100603.08;641369;222;24841;-71
2020/12/25 06:58:54;;;;;;;4.55;3.70;;;;;;;4.55;98.63;100608.55;627082;225;32848;-70
2020/12/25 07:01:35;;;;;;;4.13;3.67;;;;;;;4.45;99.29;100607.47;632980;225;26858;-70
2020/12/25 07:04:04;;;;;;;4.03;3.27;;;;;;;4.46;99.12;100617.66;632023;225;24838;-70
2020/12/25 07:06:32;;;;;;;5.33;3.57;;;;;;;4.42;99.24;100620.08;637392;224;26977;-70
2020/12/25 07:09:10;;;;;;;4.30;3.90;;;;;;;4.31;99.94;100625.52;641678;221;24847;-70
2020/12/25 07:11:38;;;;;;;3.80;3.20;;;;;;;4.37;99.88;100630.31;641209;222;24835;-71
2020/12/25 07:14:06;;;;;;;5.97;3.77;;;;;;;4.27;99.55;100630.50;643490;222;24797;-71
2020/12/25 07:16:33;;;;;;;3.93;3.40;;;;;;;4.27;100.00;100638.22;631234;225;24870;-70
2020/12/25 07:19:01;;;;;;;4.20;3.80;;;;;;;4.25;100.00;100642.19;646148;221;24803;-70
2020/12/25 07:21:30;;;;;;;5.27;3.27;;;;;;;4.25;100.00;100640.07;646231;221;25143;-70
2020/12/25 07:23:57;;;;;;;5.77;3.30;;;;;;;4.14;100.00;100637.69;634907;225;28043;-71
2020/12/25 07:26:25;;;;;;;4.60;3.27;;;;;;;4.31;100.00;100635.36;635528;225;24836;-71
2020/12/25 07:28:53;;;;;;;4.67;3.60;;;;;;;4.17;99.48;100641.81;633326;225;27058;-71
2020/12/25 07:31:21;;;;;;;4.03;3.53;;;;;;;4.23;99.75;100645.78;643141;221;24834;-70
2020/12/25 07:33:54;;;;;;;6.83;4.63;;;;;;;4.32;99.02;100641.33;643955;221;24853;-71
2020/12/25 07:36:22;;;;;;;3.13;2.73;;;;;;;4.40;99.29;100651.53;640891;221;24771;-71
2020/12/25 07:38:52;;;;;;;4.10;3.37;;;;;;;4.30;99.55;100652.19;645697;221;24796;-70
2020/12/25 07:41:19;;;;;;;3.80;3.20;;;;;;;4.41;98.92;100651.08;645784;220;24835;-70
2020/12/25 07:43:46;;;;;;;3.70;3.20;;;;;;;4.50;98.88;100659.50;644344;222;24861;-71
2020/12/25 07:46:14;;;;;;;4.83;3.23;;;;;;;4.51;99.77;100665.50;626960;225;24883;-71
2020/12/25 07:48:43;;;;;;;5.80;4.30;;;;;;;4.57;99.65;100665.94;634113;225;24848;-71
2020/12/25 07:51:11;;;;;;;6.60;4.30;;;;;;;4.56;98.76;100664.28;641330;220;25166;-71
2020/12/25 07:53:39;;;;;;;5.87;3.77;;;;;;;4.55;98.80;100669.07;633583;225;24880;-71
2020/12/25 07:56:07;;;;;;;6.03;3.70;;;;;;;4.57;98.56;100664.65;636164;225;24841;-71
2020/12/25 07:58:35;;;;;;;5.97;4.03;;;;;;;4.59;98.29;100677.42;645554;221;24762;-71
2020/12/25 08:01:03;;;;;;;6.03;3.70;;;;;;;4.60;97.55;100677.33;630306;225;24888;-71
2020/12/25 08:03:30;;;;;;;3.90;3.50;;;;;;;4.67;97.93;100681.66;636282;225;25085;-71
2020/12/25 08:05:58;;;;;;;6.00;3.90;;;;;;;4.80;96.89;100682.54;626292;223;33018;-74
2020/12/25 08:08:26;;;;;;;4.50;3.67;;;;;;;4.66;98.18;100691.13;638092;221;24805;-74
2020/12/25 08:10:54;;;;;;;5.43;3.90;;;;;;;4.63;98.44;100693.88;631360;225;24942;-73
2020/12/25 08:13:22;;;;;;;5.10;3.77;;;;;;;4.59;98.18;100701.89;628513;225;24802;-73
2020/12/25 08:15:50;;;;;;;4.23;3.83;;;;;;;4.61;97.85;100703.45;637085;225;24808;-73
2020/12/25 08:18:18;;;;;;;4.10;3.53;;;;;;;4.68;98.55;100703.91;637849;225;24884;-73
2020/12/25 08:20:46;;;;;;;6.27;3.90;;;;;;;4.63;98.94;100714.48;631826;225;24916;-73
2020/12/25 08:23:14;;;;;;;5.70;4.33;;;;;;;4.62;98.21;100708.97;632748;225;24872;-73
2020/12/25 08:25:42;;;;;;;4.13;3.73;;;;;;;4.57;98.67;100711.01;632535;225;25067;-73
2020/12/25 08:28:10;;;;;;;5.67;4.45;;;;;;;4.70;98.43;100706.75;639890;221;43429;-73
2020/12/25 08:30:38;;;;;;;4.93;4.13;;;;;;;4.63;98.22;100708.04;628200;225;29037;-73
2020/12/25 08:33:07;;;;;;;5.03;3.57;;;;;;;4.65;98.57;100712.66;643797;220;24843;-73
2020/12/25 08:35:35;;;;;;;4.80;3.90;;;;;;;4.65;96.67;100716.53;634746;225;24846;-72
2020/12/25 08:38:03;;;;;;;5.17;3.87;;;;;;;4.69;97.09;100714.12;642659;221;24867;-73
2020/12/25 08:40:32;;;;;;;5.17;4.40;;;;;;;4.67;96.82;100715.97;628297;225;24897;-73
2020/12/25 08:43:09;;;;;;;6.93;4.20;;;;;;;4.69;96.89;100724.89;638257;224;24932;-73
2020/12/25 08:45:35;;;;;;;5.80;4.53;;;;;;;4.71;97.87;100730.77;648156;221;24793;-73
2020/12/25 08:48:04;;;;;;;3.83;3.43;;;;;;;4.75;96.49;100724.03;647680;221;26955;-73
2020/12/25 08:50:32;;;;;;;6.08;4.08;;;;;;;4.89;96.68;100728.78;635575;221;33024;-73
2020/12/25 08:53:17;;;;;;;7.80;4.20;;;;;;;4.81;95.46;100729.28;639442;221;24762;-73
2020/12/25 08:55:47;;;;;;;7.87;4.00;;;;;;;4.73;95.39;100725.88;641016;222;26080;-73
2020/12/25 08:58:19;;;;;;;4.23;3.13;;;;;;;4.76;94.76;100720.53;628825;225;32403;-73
2020/12/25 09:00:57;;;;;;;4.07;3.43;;;;;;;4.84;94.65;100729.55;648569;221;24827;-73
2020/12/25 09:03:25;;;;;;;4.90;3.17;;;;;;;4.72;93.41;100724.23;640721;223;24844;-73
2020/12/25 09:06:01;;;;;;;4.37;2.77;;;;;;;4.82;94.66;100747.69;645546;221;24862;-73
2020/12/25 09:08:29;;;;;;;4.90;3.20;;;;;;;4.82;94.80;100745.11;630401;225;24836;-73
2020/12/25 09:10:57;;;;;;;3.17;2.80;;;;;;;4.77;93.16;100744.08;633244;225;24840;-73
2020/12/25 09:13:25;;;;;;;4.07;3.17;;;;;;;4.74;92.49;100755.87;631096;225;24889;-74
2020/12/25 09:15:53;;;;;;;3.07;2.77;;;;;;;4.73;92.08;100758.08;637031;225;24836;-73
2020/12/25 09:18:21;;;;;;;4.07;3.03;;;;;;;4.64;91.94;100759.92;649601;220;24785;-73
2020/12/25 09:20:50;;;;;;;3.00;2.73;;;;;;;4.58;91.51;100755.16;625385;225;24984;-73
2020/12/25 09:23:18;;;;;;;3.13;2.43;;;;;;;4.54;90.88;100760.60;645526;222;24785;-73
2020/12/25 09:25:46;;;;;;;3.63;2.50;;;;;;;4.56;90.89;100772.45;646800;221;27990;-73
2020/12/25 09:28:14;;;;;;;3.37;3.07;;;;;;;4.44;89.92;100760.32;638127;222;28068;-73
2020/12/25 09:30:42;;;;;;;3.53;3.10;;;;;;;4.48;90.46;100771.63;644818;221;24814;-73
2020/12/25 09:33:10;;;;;;;4.60;2.87;;;;;;;4.52;91.96;100790.31;639130;221;24793;-73
2020/12/25 09:35:38;;;;;;;5.77;3.20;;;;;;;4.43;90.94;100788.28;643883;221;24852;-73
2020/12/25 09:38:06;;;;;;;3.80;2.50;;;;;;;4.37;90.36;100797.67;644684;221;24825;-74
2020/12/25 09:40:34;;;;;;;4.00;3.10;;;;;;;4.36;90.00;100790.84;641167;222;24847;-73
2020/12/25 09:43:02;;;;;;;3.30;3.00;;;;;;;4.40;91.54;100786.72;641697;221;24793;-74
2020/12/25 09:45:30;;;;;;;4.80;3.10;;;;;;;4.39;91.42;100794.08;645072;221;24831;-73
2020/12/25 09:47:57;;;;;;;4.30;2.97;;;;;;;4.38;91.21;100801.44;642342;221;24829;-73
2020/12/25 09:50:25;;;;;;;5.30;2.93;;;;;;;4.42;92.69;100815.78;640867;221;24838;-74
2020/12/25 09:52:53;;;;;;;3.40;2.87;;;;;;;4.39;92.82;100812.11;628260;225;24835;-73
2020/12/25 09:55:21;;;;;;;5.33;3.50;;;;;;;4.42;91.36;100811.92;646318;221;24793;-74
2020/12/25 09:57:49;;;;;;;4.37;3.17;;;;;;;4.46;92.32;100822.39;634650;225;24889;-74
2020/12/25 10:00:17;;;;;;;7.67;4.00;;;;;;;4.51;92.67;100816.16;638861;223;24831;-74
2020/12/25 10:02:45;;;;;;;4.87;3.37;;;;;;;4.44;91.47;100813.11;640583;223;24822;-73
2020/12/25 10:05:13;;;;;;;8.97;3.30;;;;;;;4.39;91.22;100809.53;636290;223;27003;-74
2020/12/25 10:07:41;;;;;;;4.07;3.33;;;;;;;4.45;91.89;100810.44;640402;221;24836;-74
2020/12/25 10:10:09;;;;;;;3.83;3.20;;;;;;;4.45;92.55;100813.02;645739;221;24777;-74
2020/12/25 10:12:37;;;;;;;4.43;3.00;;;;;;;4.53;91.20;100815.61;643006;221;24782;-74
2020/12/25 10:15:05;;;;;;;4.93;3.47;;;;;;;4.53;91.45;100810.00;646283;219;24872;-74
2020/12/25 10:17:33;;;;;;;4.20;3.53;;;;;;;4.52;91.69;100808.34;645468;221;24825;-74
2020/12/25 10:20:01;;;;;;;4.70;3.03;;;;;;;4.56;90.79;100799.51;631691;225;25962;-74
2020/12/25 10:22:28;;;;;;;3.33;2.70;;;;;;;4.71;91.11;100815.32;631202;225;24896;-73
2020/12/25 10:24:57;;;;;;;2.60;2.40;;;;;;;4.74;89.25;100798.38;641647;221;30114;-73
2020/12/25 10:27:25;;;;;;;3.87;2.80;;;;;;;4.59;89.89;100799.31;632597;225;25105;-74
2020/12/25 10:29:53;;;;;;;3.60;3.10;;;;;;;4.50;91.46;100805.00;643677;221;24849;-74
2020/12/25 10:32:21;;;;;;;3.17;2.80;;;;;;;4.62;90.16;100808.59;634185;225;24967;-73
2020/12/25 10:34:49;;;;;;;3.50;2.53;;;;;;;4.64;89.46;100799.85;645584;221;24824;-73
2020/12/25 10:37:17;;;;;;;3.97;2.83;;;;;;;4.75;90.64;100785.04;642601;221;25142;-73
2020/12/25 10:39:45;;;;;;;2.90;2.50;;;;;;;4.99;90.87;100811.06;643101;221;24765;-73
2020/12/25 10:42:14;;;;;;;5.30;3.07;;;;;;;4.89;87.50;100788.06;641061;221;24866;-74
2020/12/25 10:44:41;;;;;;;3.53;2.50;;;;;;;4.85;87.13;100791.30;644639;221;25046;-73
2020/12/25 10:47:09;;;;;;;4.40;2.40;;;;;;;4.90;87.54;100793.58;642139;221;32964;-73
2020/12/25 10:49:37;;;;;;;4.77;2.53;;;;;;;4.85;86.79;100780.98;635344;221;32868;-73
2020/12/25 10:52:05;;;;;;;2.70;2.30;;;;;;;4.73;88.39;100799.77;628994;225;32863;-73
2020/12/25 10:54:33;;;;;;;3.50;2.77;;;;;;;4.63;86.63;100784.03;635174;225;24812;-73
2020/12/25 10:57:01;;;;;;;4.10;2.50;;;;;;;4.63;86.34;100790.93;645504;221;24876;-74
2020/12/25 10:59:28;;;;;;;5.20;2.40;;;;;;;4.69;87.13;100799.59;641880;221;24854;-74
2020/12/25 11:01:57;;;;;;;2.77;2.33;;;;;;;4.77;84.72;100789.17;629496;225;24852;-73
2020/12/25 11:04:25;;;;;;;6.07;2.70;;;;;;;4.85;85.66;100808.05;642571;220;25875;-73
2020/12/25 11:06:53;;;;;;;6.63;2.17;;;;;;;4.69;84.96;100788.83;636731;224;24833;-73
2020/12/25 11:09:21;;;;;;;8.93;2.20;;;;;;;4.85;86.30;100804.64;639346;223;24849;-74
2020/12/25 11:11:48;;;;;;;2.60;2.20;;;;;;;4.85;86.54;100803.35;641726;222;24822;-73
2020/12/25 11:14:16;;;;;;;4.28;2.30;;;;;;;4.75;83.64;100808.23;638111;221;32987;-73
2020/12/25 11:16:44;;;;;;;3.60;2.10;;;;;;;4.64;84.52;100807.58;643954;221;23727;-73
2020/12/25 11:19:13;;;;;;;3.22;2.33;;;;;;;4.66;83.87;100807.05;625641;225;32838;-73
2020/12/25 11:21:40;;;;;;;2.20;2.00;;;;;;;4.76;84.11;100797.83;638850;221;23664;-73
2020/12/25 11:24:08;;;;;;;2.70;2.13;;;;;;;4.69;82.02;100791.41;643725;221;28026;-73
2020/12/25 11:26:36;;;;;;;3.00;2.07;;;;;;;4.76;83.10;100797.83;648456;220;24826;-74
2020/12/25 11:29:04;;;;;;;4.73;1.90;;;;;;;4.86;81.61;100786.97;631880;225;24945;-74
2020/12/25 11:31:32;;;;;;;1.90;1.80;;;;;;;4.95;82.25;100794.97;643294;221;28010;-74
2020/12/25 11:33:59;;;;;;;2.73;2.03;;;;;;;4.97;84.15;100798.73;646816;221;24800;-74